createdAt,value
2019-05-22T00:00:47.582Z,1009.39
2019-05-22T00:01:47.588Z,1009.41
2019-05-22T00:02:47.599Z,1009.39
2019-05-22T00:03:47.608Z,1009.39
2019-05-22T00:04:47.611Z,1009.42
2019-05-22T00:05:47.626Z,1009.38
2019-05-22T00:06:47.647Z,1009.40
2019-05-22T00:07:47.786Z,1009.42
2019-05-22T00:08:47.643Z,1009.45
2019-05-22T00:09:47.652Z,1009.50
2019-05-22T00:10:47.662Z,1009.48
2019-05-22T00:11:47.666Z,1009.50
2019-05-22T00:12:47.669Z,1009.56
2019-05-22T00:13:47.681Z,1009.54
2019-05-22T00:14:47.684Z,1009.59
2019-05-22T00:15:47.691Z,1009.56
2019-05-22T00:16:47.705Z,1009.59
2019-05-22T00:17:47.817Z,1009.56
2019-05-22T00:18:47.715Z,1009.55
2019-05-22T00:19:47.728Z,1009.64
2019-05-22T00:20:47.751Z,1009.55
2019-05-22T00:21:47.733Z,1009.62
2019-05-22T00:22:47.749Z,1009.57
2019-05-22T00:23:47.765Z,1009.61
2019-05-22T00:24:47.765Z,1009.57
2019-05-22T00:25:47.766Z,1009.61
2019-05-22T00:26:47.777Z,1009.61
2019-05-22T00:27:47.785Z,1009.58
2019-05-22T00:28:47.788Z,1009.60
2019-05-22T00:29:47.820Z,1009.58
2019-05-22T00:30:47.794Z,1009.66
2019-05-22T00:31:47.802Z,1009.63
2019-05-22T00:32:47.822Z,1009.60
2019-05-22T00:33:47.830Z,1009.62
2019-05-22T00:34:47.836Z,1009.62
2019-05-22T00:35:47.854Z,1009.60
2019-05-22T00:36:47.849Z,1009.55
2019-05-22T00:37:47.863Z,1009.55
2019-05-22T00:38:47.857Z,1009.57
2019-05-22T00:39:47.876Z,1009.57
2019-05-22T00:40:47.893Z,1009.58
2019-05-22T00:41:47.893Z,1009.58
2019-05-22T00:43:02.874Z,1009.60
2019-05-22T00:43:47.907Z,1009.63
2019-05-22T00:44:47.922Z,1009.65
2019-05-22T00:45:47.909Z,1009.68
2019-05-22T00:46:47.919Z,1009.66
2019-05-22T00:47:47.932Z,1009.65
2019-05-22T00:48:47.934Z,1009.65
2019-05-22T00:49:47.943Z,1009.61
2019-05-22T00:50:47.955Z,1009.65
2019-05-22T00:51:47.964Z,1009.65
2019-05-22T00:52:47.970Z,1009.65
2019-05-22T00:53:47.987Z,1009.67
2019-05-22T00:54:47.982Z,1009.63
2019-05-22T00:55:48.010Z,1009.63
2019-05-22T00:56:47.996Z,1009.59
2019-05-22T00:57:48.007Z,1009.63
2019-05-22T00:58:48.017Z,1009.62
2019-05-22T00:59:48.019Z,1009.64
2019-05-22T01:00:48.031Z,1009.65
2019-05-22T01:01:48.031Z,1009.68
2019-05-22T01:02:48.043Z,1009.66
2019-05-22T01:03:48.048Z,1009.71
2019-05-22T01:04:48.060Z,1009.76
2019-05-22T01:05:48.068Z,1009.76
2019-05-22T01:06:48.082Z,1009.76
2019-05-22T01:07:48.078Z,1009.80
2019-05-22T01:08:48.086Z,1009.84
2019-05-22T01:09:48.096Z,1009.88
2019-05-22T01:10:48.098Z,1009.91
2019-05-22T01:11:48.176Z,1009.90
2019-05-22T01:12:48.107Z,1009.99
2019-05-22T01:13:48.132Z,1009.96
2019-05-22T01:14:48.132Z,1009.96
2019-05-22T01:15:48.137Z,1009.95
2019-05-22T01:16:48.160Z,1009.98
2019-05-22T01:17:48.156Z,1009.95
2019-05-22T01:18:48.161Z,1009.95
2019-05-22T01:19:48.163Z,1009.90
2019-05-22T01:20:48.175Z,1009.96
2019-05-22T01:21:48.185Z,1009.90
2019-05-22T01:22:48.202Z,1009.92
2019-05-22T01:23:48.195Z,1009.93
2019-05-22T01:24:48.217Z,1009.94
2019-05-22T01:25:48.224Z,1009.88
2019-05-22T01:26:48.297Z,1009.89
2019-05-22T01:27:48.240Z,1009.92
2019-05-22T01:28:48.226Z,1009.95
2019-05-22T01:29:48.247Z,1009.89
2019-05-22T01:30:48.248Z,1009.92
2019-05-22T01:31:48.268Z,1009.91
2019-05-22T01:32:48.269Z,1009.90
2019-05-22T01:33:48.264Z,1009.98
2019-05-22T01:34:48.287Z,1009.93
2019-05-22T01:35:48.275Z,1009.91
2019-05-22T01:36:48.285Z,1009.89
2019-05-22T01:37:48.312Z,1009.84
2019-05-22T01:38:48.306Z,1009.89
2019-05-22T01:39:48.371Z,1009.86
2019-05-22T01:40:48.318Z,1009.88
2019-05-22T01:41:48.332Z,1009.85
2019-05-22T01:42:48.330Z,1009.85
2019-05-22T01:43:48.337Z,1009.80
2019-05-22T01:45:01.630Z,1009.87
2019-05-22T01:45:48.360Z,1009.84
2019-05-22T01:46:48.365Z,1009.86
2019-05-22T01:47:48.378Z,1009.86
2019-05-22T01:48:48.384Z,1009.91
2019-05-22T01:49:48.496Z,1009.87
2019-05-22T01:50:48.393Z,1009.84
2019-05-22T01:51:48.400Z,1009.89
2019-05-22T01:52:48.413Z,1009.91
2019-05-22T01:53:48.417Z,1009.88
2019-05-22T01:54:48.425Z,1009.94
2019-05-22T01:55:48.428Z,1009.91
2019-05-22T01:56:48.448Z,1009.87
2019-05-22T01:57:48.451Z,1009.92
2019-05-22T01:58:48.452Z,1009.91
2019-05-22T01:59:48.579Z,1009.93
2019-05-22T02:00:48.464Z,1009.99
2019-05-22T02:01:48.522Z,1009.97
2019-05-22T02:02:48.476Z,1009.97
2019-05-22T02:03:48.492Z,1009.99
2019-05-22T02:04:48.489Z,1009.97
2019-05-22T02:05:48.506Z,1009.98
2019-05-22T02:06:48.511Z,1009.99
2019-05-22T02:07:48.521Z,1010.00
2019-05-22T02:08:48.522Z,1009.99
2019-05-22T02:09:48.541Z,1009.99
2019-05-22T02:10:48.541Z,1009.99
2019-05-22T02:11:48.547Z,1010.03
2019-05-22T02:12:48.552Z,1010.02
2019-05-22T02:13:48.562Z,1010.06
2019-05-22T02:14:48.571Z,1010.05
2019-05-22T02:15:48.572Z,1010.06
2019-05-22T02:16:56.665Z,1010.08
2019-05-22T02:17:48.694Z,1010.14
2019-05-22T02:18:48.588Z,1010.15
2019-05-22T02:19:48.615Z,1010.12
2019-05-22T02:20:49.594Z,1010.16
2019-05-22T02:21:48.621Z,1010.12
2019-05-22T02:22:48.630Z,1010.12
2019-05-22T02:23:48.633Z,1010.14
2019-05-22T02:24:48.637Z,1010.17
2019-05-22T02:25:48.644Z,1010.17
2019-05-22T02:26:48.663Z,1010.15
2019-05-22T02:27:48.689Z,1010.16
2019-05-22T02:28:48.671Z,1010.16
2019-05-22T02:29:48.677Z,1010.11
2019-05-22T02:30:48.688Z,1010.14
2019-05-22T02:31:48.700Z,1010.11
2019-05-22T02:32:48.699Z,1010.12
2019-05-22T02:33:48.704Z,1010.10
2019-05-22T02:34:48.717Z,1010.16
2019-05-22T02:35:48.721Z,1010.16
2019-05-22T02:36:48.727Z,1010.20
2019-05-22T02:37:48.733Z,1010.19
2019-05-22T02:38:48.744Z,1010.21
2019-05-22T02:39:48.747Z,1010.17
2019-05-22T02:40:48.740Z,1010.20
2019-05-22T02:41:48.767Z,1010.22
2019-05-22T02:42:48.773Z,1010.27
2019-05-22T02:43:48.785Z,1010.31
2019-05-22T02:44:48.828Z,1010.32
2019-05-22T02:45:48.791Z,1010.32
2019-05-22T02:46:48.800Z,1010.29
2019-05-22T02:47:48.805Z,1010.31
2019-05-22T02:48:48.812Z,1010.27
2019-05-22T02:49:48.822Z,1010.34
2019-05-22T02:50:48.884Z,1010.30
2019-05-22T02:51:48.836Z,1010.27
2019-05-22T02:52:48.841Z,1010.29
2019-05-22T02:53:48.883Z,1010.30
2019-05-22T02:54:48.858Z,1010.26
2019-05-22T02:55:48.895Z,1010.30
2019-05-22T02:56:48.868Z,1010.27
2019-05-22T02:57:48.878Z,1010.33
2019-05-22T02:58:48.886Z,1010.33
2019-05-22T02:59:48.896Z,1010.33
2019-05-22T03:00:48.893Z,1010.33
2019-05-22T03:01:48.903Z,1010.33
2019-05-22T03:02:48.909Z,1010.38
2019-05-22T03:03:48.914Z,1010.35
2019-05-22T03:04:48.930Z,1010.39
2019-05-22T03:05:49.014Z,1010.41
2019-05-22T03:06:48.951Z,1010.43
2019-05-22T03:07:48.948Z,1010.44
2019-05-22T03:08:48.953Z,1010.44
2019-05-22T03:09:48.959Z,1010.47
2019-05-22T03:10:48.972Z,1010.44
2019-05-22T03:11:48.980Z,1010.45
2019-05-22T03:12:48.993Z,1010.46
2019-05-22T03:13:48.995Z,1010.50
2019-05-22T03:14:49.051Z,1010.48
2019-05-22T03:15:49.002Z,1010.47
2019-05-22T03:16:49.012Z,1010.50
2019-05-22T03:17:49.014Z,1010.48
2019-05-22T03:19:07.598Z,1010.50
2019-05-22T03:19:49.052Z,1010.51
2019-05-22T03:20:49.116Z,1010.53
2019-05-22T03:21:49.049Z,1010.55
2019-05-22T03:22:49.050Z,1010.55
2019-05-22T03:23:49.059Z,1010.57
2019-05-22T03:24:49.071Z,1010.52
2019-05-22T03:25:49.077Z,1010.54
2019-05-22T03:26:49.079Z,1010.58
2019-05-22T03:27:49.101Z,1010.57
2019-05-22T03:28:49.110Z,1010.55
2019-05-22T03:29:49.101Z,1010.55
2019-05-22T03:30:49.115Z,1010.55
2019-05-22T03:31:49.118Z,1010.53
2019-05-22T03:32:49.130Z,1010.58
2019-05-22T03:33:49.131Z,1010.56
2019-05-22T03:34:49.138Z,1010.61
2019-05-22T03:35:49.164Z,1010.59
2019-05-22T03:36:49.154Z,1010.60
2019-05-22T03:37:49.158Z,1010.64
2019-05-22T03:38:49.168Z,1010.63
2019-05-22T03:39:49.173Z,1010.60
2019-05-22T03:40:49.182Z,1010.63
2019-05-22T03:41:49.209Z,1010.62
2019-05-22T03:42:49.196Z,1010.65
2019-05-22T03:43:49.202Z,1010.67
2019-05-22T03:44:49.210Z,1010.61
2019-05-22T03:45:49.218Z,1010.66
2019-05-22T03:46:49.217Z,1010.64
2019-05-22T03:47:49.230Z,1010.65
2019-05-22T03:48:49.250Z,1010.67
2019-05-22T03:49:49.241Z,1010.71
2019-05-22T03:50:49.252Z,1010.69
2019-05-22T03:51:49.252Z,1010.63
2019-05-22T03:52:49.268Z,1010.64
2019-05-22T03:53:49.267Z,1010.69
2019-05-22T03:54:49.281Z,1010.64
2019-05-22T03:55:49.292Z,1010.70
2019-05-22T03:56:49.352Z,1010.65
2019-05-22T03:57:49.300Z,1010.69
2019-05-22T03:58:49.316Z,1010.69
2019-05-22T03:59:49.321Z,1010.76
2019-05-22T04:00:49.313Z,1010.76
2019-05-22T04:01:49.322Z,1010.75
2019-05-22T04:02:49.331Z,1010.80
2019-05-22T04:03:49.338Z,1010.77
2019-05-22T04:04:49.357Z,1010.79
2019-05-22T04:05:49.364Z,1010.76
2019-05-22T04:06:49.351Z,1010.81
2019-05-22T04:07:49.369Z,1010.82
2019-05-22T04:08:49.381Z,1010.76
2019-05-22T04:09:49.380Z,1010.79
2019-05-22T04:10:49.387Z,1010.79
2019-05-22T04:11:49.397Z,1010.81
2019-05-22T04:12:49.406Z,1010.83
2019-05-22T04:13:49.415Z,1010.82
2019-05-22T04:14:49.434Z,1010.83
2019-05-22T04:15:49.425Z,1010.85
2019-05-22T04:16:49.436Z,1010.88
2019-05-22T04:17:49.438Z,1010.90
2019-05-22T04:18:49.436Z,1010.91
2019-05-22T04:19:51.661Z,1010.91
2019-05-22T04:20:49.459Z,1010.97
2019-05-22T04:21:49.467Z,1011.02
2019-05-22T04:22:49.470Z,1010.99
2019-05-22T04:23:49.480Z,1010.98
2019-05-22T04:24:49.489Z,1011.00
2019-05-22T04:25:53.162Z,1011.02
2019-05-22T04:26:49.497Z,1011.05
2019-05-22T04:27:49.510Z,1011.02
2019-05-22T04:28:49.513Z,1011.03
2019-05-22T04:29:49.565Z,1011.02
2019-05-22T04:30:49.546Z,1011.02
2019-05-22T04:31:49.540Z,1011.07
2019-05-22T04:32:49.541Z,1011.09
2019-05-22T04:33:49.554Z,1011.12
2019-05-22T04:34:49.559Z,1011.15
2019-05-22T04:35:49.562Z,1011.07
2019-05-22T04:36:49.572Z,1011.15
2019-05-22T04:37:49.582Z,1011.16
2019-05-22T04:38:49.584Z,1011.17
2019-05-22T04:39:49.584Z,1011.12
2019-05-22T04:40:49.625Z,1011.18
2019-05-22T04:41:49.602Z,1011.19
2019-05-22T04:42:49.618Z,1011.11
2019-05-22T04:43:49.628Z,1011.17
2019-05-22T04:44:49.634Z,1011.16
2019-05-22T04:45:49.635Z,1011.17
2019-05-22T04:46:49.639Z,1011.21
2019-05-22T04:47:49.650Z,1011.21
2019-05-22T04:48:49.651Z,1011.17
2019-05-22T04:50:06.213Z,1011.20
2019-05-22T04:50:49.683Z,1011.18
2019-05-22T04:51:49.675Z,1011.18
2019-05-22T04:52:49.680Z,1011.22
2019-05-22T04:53:49.689Z,1011.20
2019-05-22T04:54:52.496Z,1011.20
2019-05-22T04:55:49.702Z,1011.20
2019-05-22T04:56:49.720Z,1011.24
2019-05-22T04:57:49.721Z,1011.24
2019-05-22T04:58:49.719Z,1011.20
2019-05-22T04:59:49.729Z,1011.25
2019-05-22T05:00:49.734Z,1011.25
2019-05-22T05:01:49.741Z,1011.22
2019-05-22T05:02:49.753Z,1011.26
2019-05-22T05:03:49.747Z,1011.24
2019-05-22T05:04:49.772Z,1011.27
2019-05-22T05:05:49.776Z,1011.26
2019-05-22T05:06:49.891Z,1011.24
2019-05-22T05:07:49.776Z,1011.27
2019-05-22T05:08:49.795Z,1011.32
2019-05-22T05:09:49.798Z,1011.30
2019-05-22T05:10:49.850Z,1011.30
2019-05-22T05:11:49.811Z,1011.43
2019-05-22T05:12:49.821Z,1011.41
2019-05-22T05:13:49.821Z,1011.38
2019-05-22T05:14:49.841Z,1011.42
2019-05-22T05:15:49.839Z,1011.47
2019-05-22T05:16:49.846Z,1011.47
2019-05-22T05:17:49.856Z,1011.46
2019-05-22T05:18:49.863Z,1011.50
2019-05-22T05:19:49.875Z,1011.49
2019-05-22T05:20:49.932Z,1011.45
2019-05-22T05:21:49.889Z,1011.43
2019-05-22T05:22:49.892Z,1011.42
2019-05-22T05:23:49.911Z,1011.44
2019-05-22T05:24:49.897Z,1011.44
2019-05-22T05:25:49.914Z,1011.43
2019-05-22T05:26:49.921Z,1011.44
2019-05-22T05:27:49.932Z,1011.49
2019-05-22T05:28:49.944Z,1011.50
2019-05-22T05:29:49.942Z,1011.49
2019-05-22T05:30:49.953Z,1011.51
2019-05-22T05:31:49.949Z,1011.50
2019-05-22T05:32:49.962Z,1011.52
2019-05-22T05:33:49.969Z,1011.60
2019-05-22T05:34:49.975Z,1011.58
2019-05-22T05:35:49.984Z,1011.59
2019-05-22T05:36:49.992Z,1011.57
2019-05-22T05:37:49.996Z,1011.58
2019-05-22T05:38:49.989Z,1011.57
2019-05-22T05:39:50.011Z,1011.57
2019-05-22T05:40:50.018Z,1011.61
2019-05-22T05:41:50.018Z,1011.59
2019-05-22T05:42:50.032Z,1011.59
2019-05-22T05:43:50.032Z,1011.61
2019-05-22T05:44:50.045Z,1011.64
2019-05-22T05:45:50.056Z,1011.62
2019-05-22T05:46:50.057Z,1011.62
2019-05-22T05:47:50.065Z,1011.67
2019-05-22T05:48:50.073Z,1011.62
2019-05-22T05:49:50.074Z,1011.66
2019-05-22T05:50:50.095Z,1011.68
2019-05-22T05:51:50.086Z,1011.73
2019-05-22T05:52:50.102Z,1011.72
2019-05-22T05:53:50.105Z,1011.68
2019-05-22T05:54:50.117Z,1011.71
2019-05-22T05:55:50.124Z,1011.69
2019-05-22T05:56:50.133Z,1011.73
2019-05-22T05:57:50.137Z,1011.74
2019-05-22T05:58:50.150Z,1011.76
2019-05-22T05:59:50.154Z,1011.74
2019-05-22T06:00:50.167Z,1011.75
2019-05-22T06:01:50.176Z,1011.78
2019-05-22T06:02:56.637Z,1011.76
2019-05-22T06:03:50.178Z,1011.80
2019-05-22T06:04:50.186Z,1011.78
2019-05-22T06:05:50.197Z,1011.83
2019-05-22T06:06:50.207Z,1011.85
2019-05-22T06:07:50.205Z,1011.85
2019-05-22T06:08:50.220Z,1011.89
2019-05-22T06:09:50.221Z,1011.88
2019-05-22T06:10:50.242Z,1011.89
2019-05-22T06:11:50.295Z,1011.95
2019-05-22T06:12:50.269Z,1011.93
2019-05-22T06:13:50.252Z,1011.94
2019-05-22T06:14:50.267Z,1011.94
2019-05-22T06:15:50.284Z,1011.95
2019-05-22T06:16:50.279Z,1011.96
2019-05-22T06:17:50.281Z,1011.95
2019-05-22T06:18:50.290Z,1011.96
2019-05-22T06:19:50.303Z,1012.01
2019-05-22T06:21:03.259Z,1012.00
2019-05-22T06:21:50.312Z,1012.04
2019-05-22T06:22:50.321Z,1012.00
2019-05-22T06:23:50.327Z,1012.06
2019-05-22T06:24:50.337Z,1012.03
2019-05-22T06:25:50.343Z,1012.01
2019-05-22T06:26:50.365Z,1012.02
2019-05-22T06:27:50.371Z,1012.04
2019-05-22T06:28:50.366Z,1012.04
2019-05-22T06:29:50.367Z,1012.08
2019-05-22T06:31:50.393Z,1012.01
2019-05-22T06:32:50.396Z,1011.99
2019-05-22T06:33:50.402Z,1012.01
2019-05-22T06:34:50.414Z,1012.00
2019-05-22T06:35:50.435Z,1011.99
2019-05-22T06:36:50.434Z,1012.05
2019-05-22T06:37:50.437Z,1012.02
2019-05-22T06:38:50.446Z,1012.03
2019-05-22T06:39:50.504Z,1012.07
2019-05-22T06:40:50.463Z,1012.04
2019-05-22T06:41:50.530Z,1012.08
2019-05-22T06:42:50.478Z,1012.04
2019-05-22T06:43:50.494Z,1012.09
2019-05-22T06:44:50.495Z,1012.09
2019-05-22T06:45:50.500Z,1012.10
2019-05-22T06:46:50.502Z,1012.15
2019-05-22T06:47:50.521Z,1012.20
2019-05-22T06:48:50.529Z,1012.18
2019-05-22T06:49:50.668Z,1012.23
2019-05-22T06:50:50.540Z,1012.21
2019-05-22T06:51:50.605Z,1012.22
2019-05-22T06:52:50.643Z,1012.22
2019-05-22T06:53:50.669Z,1012.24
2019-05-22T06:54:50.844Z,1012.26
2019-05-22T06:55:50.584Z,1012.26
2019-05-22T06:56:50.642Z,1012.26
2019-05-22T06:57:50.631Z,1012.30
2019-05-22T06:58:50.684Z,1012.26
2019-05-22T07:00:10.867Z,1012.24
2019-05-22T07:00:50.842Z,1012.30
2019-05-22T07:01:50.658Z,1012.28
2019-05-22T07:02:50.631Z,1012.33
2019-05-22T07:03:50.636Z,1012.33
2019-05-22T07:04:50.651Z,1012.34
2019-05-22T07:05:50.750Z,1012.37
2019-05-22T07:06:50.665Z,1012.38
2019-05-22T07:07:50.669Z,1012.39
2019-05-22T07:08:50.673Z,1012.42
2019-05-22T07:09:50.685Z,1012.40
2019-05-22T07:10:50.691Z,1012.41
2019-05-22T07:11:50.713Z,1012.46
2019-05-22T07:12:51.182Z,1012.45
2019-05-22T07:13:50.713Z,1012.51
2019-05-22T07:14:50.725Z,1012.48
2019-05-22T07:15:50.726Z,1012.45
2019-05-22T07:17:50.756Z,1012.52
2019-05-22T07:18:50.751Z,1012.59
2019-05-22T07:19:50.766Z,1012.56
2019-05-22T07:20:50.781Z,1012.59
2019-05-22T07:21:50.781Z,1012.58
2019-05-22T07:22:50.799Z,1012.59
2019-05-22T07:23:50.789Z,1012.69
2019-05-22T07:24:50.813Z,1012.68
2019-05-22T07:25:50.810Z,1012.71
2019-05-22T07:26:50.818Z,1012.67
2019-05-22T07:27:50.832Z,1012.72
2019-05-22T07:28:50.935Z,1012.67
2019-05-22T07:29:50.831Z,1012.68
2019-05-22T07:30:50.867Z,1012.71
2019-05-22T07:31:50.850Z,1012.72
2019-05-22T07:32:50.863Z,1012.74
2019-05-22T07:33:50.869Z,1012.69
2019-05-22T07:34:50.873Z,1012.71
2019-05-22T07:36:08.479Z,1012.72
2019-05-22T07:36:50.887Z,1012.73
2019-05-22T07:37:50.911Z,1012.69
2019-05-22T07:38:50.902Z,1012.71
2019-05-22T07:39:50.910Z,1012.69
2019-05-22T07:40:51.693Z,1012.66
2019-05-22T07:41:50.934Z,1012.68
2019-05-22T07:42:50.953Z,1012.66
2019-05-22T07:43:50.950Z,1012.67
2019-05-22T07:44:50.948Z,1012.69
2019-05-22T07:45:50.961Z,1012.64
2019-05-22T07:46:50.968Z,1012.65
2019-05-22T07:47:50.972Z,1012.60
2019-05-22T07:48:50.974Z,1012.64
2019-05-22T07:49:50.998Z,1012.64
2019-05-22T07:50:51.106Z,1012.67
2019-05-22T07:51:58.873Z,1012.75
2019-05-22T07:52:51.007Z,1012.66
2019-05-22T07:53:51.015Z,1012.70
2019-05-22T07:54:51.028Z,1012.73
2019-05-22T07:55:51.062Z,1012.74
2019-05-22T07:56:51.045Z,1012.75
2019-05-22T07:57:51.051Z,1012.79
2019-05-22T07:58:51.111Z,1012.76
2019-05-22T07:59:51.061Z,1012.74
2019-05-22T08:00:51.093Z,1012.68
2019-05-22T08:01:51.096Z,1012.75
2019-05-22T08:02:51.133Z,1012.68
2019-05-22T08:03:51.102Z,1012.73
2019-05-22T08:04:51.116Z,1012.73
2019-05-22T08:05:51.148Z,1012.72
2019-05-22T08:06:51.127Z,1012.75
2019-05-22T08:07:51.150Z,1012.77
2019-05-22T08:08:51.162Z,1012.71
2019-05-22T08:09:51.159Z,1012.78
2019-05-22T08:10:51.151Z,1012.75
2019-05-22T08:11:51.517Z,1012.79
2019-05-22T08:12:51.178Z,1012.86
2019-05-22T08:13:51.169Z,1012.85
2019-05-22T08:14:51.223Z,1012.89
2019-05-22T08:15:51.197Z,1012.95
2019-05-22T08:16:51.197Z,1012.97
2019-05-22T08:17:53.995Z,1012.96
2019-05-22T08:18:51.269Z,1012.96
2019-05-22T08:19:51.247Z,1012.97
2019-05-22T08:20:51.234Z,1013.01
2019-05-22T08:22:04.673Z,1013.01
2019-05-22T08:22:51.259Z,1012.99
2019-05-22T08:23:51.260Z,1013.04
2019-05-22T08:24:51.270Z,1013.02
2019-05-22T08:25:51.282Z,1013.01
2019-05-22T08:26:54.477Z,1012.99
2019-05-22T08:27:51.293Z,1013.01
2019-05-22T08:28:51.636Z,1013.00
2019-05-22T08:29:51.314Z,1012.94
2019-05-22T08:30:51.318Z,1012.92
2019-05-22T08:31:51.332Z,1012.95
2019-05-22T08:32:51.337Z,1013.01
2019-05-22T08:33:51.350Z,1012.96
2019-05-22T08:34:51.358Z,1012.97
2019-05-22T08:35:51.368Z,1012.97
2019-05-22T08:36:51.373Z,1012.95
2019-05-22T08:37:51.385Z,1012.93
2019-05-22T08:38:51.381Z,1012.96
2019-05-22T08:39:51.415Z,1012.94
2019-05-22T08:40:51.409Z,1012.96
2019-05-22T08:41:51.496Z,1012.93
2019-05-22T08:42:51.487Z,1012.87
2019-05-22T08:44:13.616Z,1012.94
2019-05-22T08:44:51.442Z,1012.99
2019-05-22T08:45:51.573Z,1012.97
2019-05-22T08:46:51.508Z,1013.00
2019-05-22T08:47:51.468Z,1013.00
2019-05-22T08:48:51.534Z,1012.97
2019-05-22T08:49:51.486Z,1013.02
2019-05-22T08:50:51.500Z,1013.02
2019-05-22T08:51:51.502Z,1013.07
2019-05-22T08:52:51.509Z,1013.01
2019-05-22T08:53:51.515Z,1013.00
2019-05-22T08:54:51.516Z,1013.01
2019-05-22T08:55:51.536Z,1013.07
2019-05-22T08:56:51.598Z,1013.05
2019-05-22T08:57:51.561Z,1013.10
2019-05-22T08:58:51.560Z,1013.04
2019-05-22T08:59:51.570Z,1013.06
2019-05-22T09:00:51.572Z,1013.08
2019-05-22T09:01:51.585Z,1013.13
2019-05-22T09:02:51.595Z,1013.15
2019-05-22T09:03:51.712Z,1013.13
2019-05-22T09:04:51.613Z,1013.10
2019-05-22T09:05:52.122Z,1013.10
2019-05-22T09:06:51.650Z,1013.08
2019-05-22T09:07:51.638Z,1013.09
2019-05-22T09:08:51.639Z,1013.19
2019-05-22T09:09:51.646Z,1013.27
2019-05-22T09:10:51.657Z,1013.31
2019-05-22T09:11:51.662Z,1013.30
2019-05-22T09:12:51.693Z,1013.34
2019-05-22T09:13:51.700Z,1013.24
2019-05-22T09:14:51.689Z,1013.26
2019-05-22T09:15:51.701Z,1013.26
2019-05-22T09:16:51.713Z,1013.31
2019-05-22T09:17:51.719Z,1013.28
2019-05-22T09:18:51.803Z,1013.27
2019-05-22T09:19:51.794Z,1013.25
2019-05-22T09:20:51.736Z,1013.31
2019-05-22T09:21:51.744Z,1013.29
2019-05-22T09:22:51.755Z,1013.41
2019-05-22T09:23:51.772Z,1013.39
2019-05-22T09:24:51.783Z,1013.31
2019-05-22T09:25:51.803Z,1013.30
2019-05-22T09:26:51.835Z,1013.33
2019-05-22T09:27:51.802Z,1013.29
2019-05-22T09:28:51.816Z,1013.26
2019-05-22T09:29:51.808Z,1013.27
2019-05-22T09:30:51.833Z,1013.29
2019-05-22T09:31:51.833Z,1013.30
2019-05-22T09:32:51.845Z,1013.36
2019-05-22T09:33:51.864Z,1013.36
2019-05-22T09:34:51.860Z,1013.40
2019-05-22T09:35:51.930Z,1013.43
2019-05-22T09:36:51.882Z,1013.45
2019-05-22T09:37:51.887Z,1013.55
2019-05-22T09:38:52.806Z,1013.58
2019-05-22T09:39:51.958Z,1013.68
2019-05-22T09:40:51.909Z,1013.57
2019-05-22T09:41:51.925Z,1013.57
2019-05-22T09:42:51.935Z,1013.63
2019-05-22T09:43:52.007Z,1013.67
2019-05-22T09:44:52.059Z,1013.83
2019-05-22T09:45:51.960Z,1013.86
2019-05-22T09:46:51.962Z,1013.87
2019-05-22T09:47:51.978Z,1013.84
2019-05-22T09:48:51.982Z,1013.81
2019-05-22T09:49:51.994Z,1013.92
2019-05-22T09:50:52.014Z,1013.99
2019-05-22T09:51:52.026Z,1013.99
2019-05-22T09:52:57.652Z,1013.84
2019-05-22T09:53:52.034Z,1013.84
2019-05-22T09:54:52.087Z,1014.22
2019-05-22T09:55:52.057Z,1013.90
2019-05-22T09:56:52.057Z,1013.80
2019-05-22T09:57:52.072Z,1013.82
2019-05-22T09:58:52.089Z,1013.87
2019-05-22T09:59:52.085Z,1014.68
2019-05-22T10:00:52.110Z,1015.10
2019-05-22T10:01:52.108Z,1015.77
2019-05-22T10:02:52.115Z,1015.31
2019-05-22T10:03:52.120Z,1015.27
2019-05-22T10:04:52.129Z,1014.44
2019-05-22T10:05:52.278Z,1014.20
2019-05-22T10:06:52.164Z,1014.23
2019-05-22T10:08:00.435Z,1014.30
2019-05-22T10:08:52.180Z,1014.14
2019-05-22T10:09:52.190Z,1014.49
2019-05-22T10:10:53.160Z,1015.06
2019-05-22T10:11:52.213Z,1014.33
2019-05-22T10:12:52.220Z,1014.20
2019-05-22T10:13:52.347Z,1015.68
2019-05-22T10:14:52.500Z,1015.29
2019-05-22T10:15:52.256Z,1023.78
2019-05-22T10:16:52.269Z,1015.01
2019-05-22T10:17:52.305Z,1014.97
2019-05-22T10:18:53.611Z,1014.82
2019-05-22T10:19:52.300Z,1014.57
2019-05-22T10:20:52.323Z,1014.39
2019-05-22T10:21:52.335Z,1014.60
2019-05-22T10:22:52.369Z,1014.41
2019-05-22T10:23:52.343Z,1014.48
2019-05-22T10:24:52.366Z,1014.93
2019-05-22T10:25:52.378Z,1018.63
2019-05-22T10:26:52.400Z,1017.17
2019-05-22T10:27:52.398Z,1016.85
2019-05-22T10:28:52.409Z,1015.35
2019-05-22T10:29:52.427Z,1016.05
2019-05-22T10:30:52.785Z,1014.95
2019-05-22T10:31:52.447Z,1014.34
2019-05-22T10:32:52.464Z,1014.08
2019-05-22T10:33:52.592Z,1014.04
2019-05-22T10:34:52.490Z,1014.16
2019-05-22T10:35:52.505Z,1014.03
2019-05-22T10:36:52.510Z,1014.01
2019-05-22T10:38:52.550Z,1014.10
2019-05-22T10:39:52.551Z,1013.97
2019-05-22T10:40:52.562Z,1014.65
2019-05-22T10:41:52.578Z,1014.56
2019-05-22T10:42:52.696Z,1014.44
2019-05-22T10:43:52.614Z,1014.24
2019-05-22T10:44:52.610Z,1014.14
2019-05-22T10:45:52.624Z,1014.23
2019-05-22T10:46:52.643Z,1015.97
2019-05-22T10:47:52.653Z,1020.14
2019-05-22T10:48:52.655Z,1017.68
2019-05-22T10:49:52.690Z,1020.26
2019-05-22T10:50:52.690Z,1019.94
2019-05-22T10:51:52.704Z,1019.24
2019-05-22T10:52:54.545Z,1018.55
2019-05-22T10:53:52.729Z,1018.22
2019-05-22T10:54:55.938Z,1017.86
2019-05-22T10:55:52.772Z,1017.19
2019-05-22T10:56:52.780Z,1016.61
2019-05-22T10:57:52.806Z,1014.40
2019-05-22T10:58:52.818Z,1016.11
2019-05-22T10:59:52.818Z,1015.82
2019-05-22T11:00:52.844Z,1016.13
2019-05-22T11:01:52.856Z,1015.66
2019-05-22T11:02:52.872Z,1014.39
2019-05-22T11:03:52.888Z,1014.33
2019-05-22T11:04:52.905Z,1014.41
2019-05-22T11:06:06.462Z,1014.79
2019-05-22T11:06:52.936Z,1014.46
2019-05-22T11:07:52.955Z,1015.54
2019-05-22T11:08:52.978Z,1015.59
2019-05-22T11:09:52.984Z,1015.24
2019-05-22T11:10:53.001Z,1015.01
2019-05-22T11:11:53.018Z,1014.91
2019-05-22T11:12:53.038Z,1014.18
2019-05-22T11:14:01.188Z,1014.32
2019-05-22T11:14:53.066Z,1014.29
2019-05-22T11:15:53.079Z,1014.85
2019-05-22T11:16:53.110Z,1014.59
2019-05-22T11:17:53.119Z,1014.52
2019-05-22T11:18:53.138Z,1014.56
2019-05-22T11:19:53.151Z,1014.44
2019-05-22T11:20:53.151Z,1014.96
2019-05-22T11:21:56.828Z,1014.40
2019-05-22T11:22:53.191Z,1014.84
2019-05-22T11:23:53.432Z,1014.83
2019-05-22T11:24:53.216Z,1014.86
2019-05-22T11:25:53.352Z,1014.79
2019-05-22T11:26:53.262Z,1014.86
2019-05-22T11:27:53.280Z,1014.96
2019-05-22T11:28:53.283Z,1014.87
2019-05-22T11:29:53.295Z,1015.06
2019-05-22T11:30:53.310Z,1014.70
2019-05-22T11:31:53.339Z,1014.98
2019-05-22T11:32:53.357Z,1014.86
2019-05-22T11:33:53.366Z,1014.28
2019-05-22T11:34:53.400Z,1014.58
2019-05-22T11:35:53.392Z,1014.12
2019-05-22T11:36:53.440Z,1014.07
2019-05-22T11:37:53.440Z,1014.04
2019-05-22T11:38:53.465Z,1014.35
2019-05-22T11:39:53.476Z,1014.59
2019-05-22T11:40:53.487Z,1014.77
2019-05-22T11:41:53.503Z,1014.65
2019-05-22T11:42:53.542Z,1014.43
2019-05-22T11:43:53.538Z,1014.52
2019-05-22T11:44:53.580Z,1014.52
2019-05-22T11:45:53.580Z,1014.23
2019-05-22T11:46:53.585Z,1014.17
2019-05-22T11:47:53.602Z,1014.00
2019-05-22T11:48:53.648Z,1014.54
2019-05-22T11:49:53.946Z,1014.71
2019-05-22T11:50:53.662Z,1014.09
2019-05-22T11:51:53.667Z,1014.53
2019-05-22T11:52:53.692Z,1014.49
2019-05-22T11:54:07.940Z,1014.22
2019-05-22T11:54:53.740Z,1014.10
2019-05-22T11:55:53.759Z,1013.56
2019-05-22T11:56:53.754Z,1013.82
2019-05-22T11:57:53.773Z,1013.84
2019-05-22T11:58:53.786Z,1013.94
2019-05-22T11:59:53.806Z,1014.11
2019-05-22T12:00:53.818Z,1014.16
2019-05-22T12:01:53.835Z,1013.99
2019-05-22T12:02:53.850Z,1014.31
2019-05-22T12:03:53.878Z,1013.97
2019-05-22T12:04:53.970Z,1013.90
2019-05-22T12:05:53.904Z,1013.99
2019-05-22T12:06:54.127Z,1014.16
2019-05-22T12:07:53.934Z,1014.13
2019-05-22T12:08:53.952Z,1014.11